ZGGG

Guangzhou Baiyun International Airport

Guangzhou, China
TAF ZGGG 260904Z 2612/2712 06003MPS 3500 -RA BR SCT011 BKN030 TX26/2707Z TN21/2622Z
Issued Valid From Valid To
Apr-26 @ 09:04 UTC
(4 hours ago)
Apr-26 @ 12:00 UTC
(2 hours ago)
Apr-27 @ 12:00 UTC
(in 22 hours)
Apr-26 @ 12:00 to Apr-27 @ 12:00
TAF ZGGG 260904Z 2612/2712 06003MPS 3500 -RA BR SCT011 BKN030 TX26/2707Z TN21/2622Z
Wind Visibility Clouds Conditions
60° at 6 knots 3,492 meters
  • Scattered at 1,100' AGL
  • Broken at 3,000' AGL
  • Light Rain
  • Mist
TAF ZGGG 260904Z 2612/2712 06003MPS 3500 -RA BR SCT011 BKN030 TX26/2707Z TN21/2622Z
Issued Apr-26 @ 09:04 UTC
(4 hours ago)
Valid From Apr-26 @ 12:00 UTC
(2 hours ago)
Valid To Apr-27 @ 12:00 UTC
(in 22 hours)
Apr-26 @ 12:00 - Apr-27 @ 12:00
Wind Visibility
60° at 6 knots 3,492 meters
Clouds
  • Scattered at 1,100' AGL
  • Broken at 3,000' AGL
Conditions
  • Light Rain
  • Mist